Current Weather

Fort Wayne International Airp

Fort Wayne International Airp, Indiana (KFWA)

Report from: Thursday, May 19, 2022 1:54 PM EDT
Current time: Thursday, May 19, 2022 3:08 PM EDT

Nearby weather
Weather history
Weather forecast

Temperature25.6°C (78.1°F)
Dew point16.7°C (62.1°F)
Winds 13 kts (6.7 m/s, 15 mph) Southwest (230°)
Wind gusts 20 kts (10.3 m/s, 23 mph)
Visibility10 mi. (16.1 km)
Clouds Few clouds 15,000 ft. (4,572 m)
Ceiling: Broken clouds 25,000 ft. (7,620 m)
Altimeter29.73 in.Hg (1007 mB)
Relative humidity58 %
Density altitude1,705 ft. (520 m)
Sea-level pressure100.6 kPa (1006 mB, 29.72 in.Hg)
Max temp last 6 hours25.6°C (78.1°F)
Min temp last 6 hours14.4°C (57.9°F)
Remarks Automated weather observing station with precipitation discriminator
Pressure falling more quickly
Flight conditions Visual Meteorological Conditions
Raw dataKFWA 191754Z 23013G20KT 10SM FEW150 BKN250 26/17 A2973 RMK AO2 SLP063 T02560167 10256 20144 58019
An error has occurred. This application may no longer respond until reloaded. Reload 🗙